sensor_id;sensor_type;location;lat;lon;timestamp;temperature;humidity
9885;DHT22;4981;50.966;4.842;2024-03-08T00:00:22;11.00;1.00
9885;DHT22;4981;50.966;4.842;2024-03-08T00:02:49;10.60;1.00
9885;DHT22;4981;50.966;4.842;2024-03-08T00:05:17;10.20;1.00
9885;DHT22;4981;50.966;4.842;2024-03-08T00:07:45;9.30;1.00
9885;DHT22;4981;50.966;4.842;2024-03-08T00:10:12;9.70;1.00
9885;DHT22;4981;50.966;4.842;2024-03-08T00:12:40;9.10;1.00
9885;DHT22;4981;50.966;4.842;2024-03-08T00:15:09;9.20;1.00
9885;DHT22;4981;50.966;4.842;2024-03-08T00:17:39;10.00;1.00
9885;DHT22;4981;50.966;4.842;2024-03-08T00:20:07;9.10;1.00
9885;DHT22;4981;50.966;4.842;2024-03-08T00:22:35;9.20;1.00
9885;DHT22;4981;50.966;4.842;2024-03-08T00:25:03;8.80;1.00
9885;DHT22;4981;50.966;4.842;2024-03-08T00:27:30;7.40;1.00
9885;DHT22;4981;50.966;4.842;2024-03-08T00:29:57;7.00;1.00
9885;DHT22;4981;50.966;4.842;2024-03-08T00:32:25;7.90;1.00
9885;DHT22;4981;50.966;4.842;2024-03-08T00:34:53;7.60;1.00
9885;DHT22;4981;50.966;4.842;2024-03-08T00:37:20;9.80;1.00
9885;DHT22;4981;50.966;4.842;2024-03-08T00:39:47;9.30;1.00
9885;DHT22;4981;50.966;4.842;2024-03-08T00:42:15;9.40;1.00
9885;DHT22;4981;50.966;4.842;2024-03-08T00:44:42;8.00;1.00
9885;DHT22;4981;50.966;4.842;2024-03-08T00:47:09;9.30;1.00
9885;DHT22;4981;50.966;4.842;2024-03-08T00:49:38;8.50;1.00
9885;DHT22;4981;50.966;4.842;2024-03-08T00:52:05;8.90;1.00
9885;DHT22;4981;50.966;4.842;2024-03-08T00:54:34;8.80;1.00
9885;DHT22;4981;50.966;4.842;2024-03-08T00:57:01;8.50;1.00
9885;DHT22;4981;50.966;4.842;2024-03-08T00:59:29;7.70;1.00
9885;DHT22;4981;50.966;4.842;2024-03-08T01:01:58;7.20;1.00
9885;DHT22;4981;50.966;4.842;2024-03-08T01:04:26;7.80;1.00
9885;DHT22;4981;50.966;4.842;2024-03-08T01:06:56;6.90;1.00
9885;DHT22;4981;50.966;4.842;2024-03-08T01:09:23;6.70;1.00
9885;DHT22;4981;50.966;4.842;2024-03-08T01:11:50;8.60;1.00
9885;DHT22;4981;50.966;4.842;2024-03-08T01:14:18;8.00;1.00
9885;DHT22;4981;50.966;4.842;2024-03-08T01:16:48;8.20;1.00
9885;DHT22;4981;50.966;4.842;2024-03-08T01:19:15;7.10;1.00
9885;DHT22;4981;50.966;4.842;2024-03-08T01:21:42;7.00;1.00
9885;DHT22;4981;50.966;4.842;2024-03-08T01:24:10;6.50;1.00
9885;DHT22;4981;50.966;4.842;2024-03-08T01:26:38;7.40;1.00
9885;DHT22;4981;50.966;4.842;2024-03-08T01:29:05;7.90;1.00
9885;DHT22;4981;50.966;4.842;2024-03-08T01:31:33;9.00;1.00
9885;DHT22;4981;50.966;4.842;2024-03-08T01:34:02;8.80;1.00
9885;DHT22;4981;50.966;4.842;2024-03-08T01:36:29;7.30;1.00
9885;DHT22;4981;50.966;4.842;2024-03-08T01:38:56;7.80;1.00
9885;DHT22;4981;50.966;4.842;2024-03-08T01:41:24;7.70;1.00
9885;DHT22;4981;50.966;4.842;2024-03-08T01:43:55;7.80;1.00
9885;DHT22;4981;50.966;4.842;2024-03-08T01:46:22;7.70;1.00
9885;DHT22;4981;50.966;4.842;2024-03-08T01:48:50;6.90;1.00
9885;DHT22;4981;50.966;4.842;2024-03-08T01:51:19;7.20;1.00
9885;DHT22;4981;50.966;4.842;2024-03-08T01:53:48;8.50;1.00
9885;DHT22;4981;50.966;4.842;2024-03-08T01:56:15;8.90;1.00
9885;DHT22;4981;50.966;4.842;2024-03-08T01:58:45;8.80;1.00
9885;DHT22;4981;50.966;4.842;2024-03-08T02:01:13;9.00;1.00
9885;DHT22;4981;50.966;4.842;2024-03-08T02:03:41;8.40;1.00
9885;DHT22;4981;50.966;4.842;2024-03-08T02:06:11;8.50;1.00
9885;DHT22;4981;50.966;4.842;2024-03-08T02:08:42;7.30;1.00
9885;DHT22;4981;50.966;4.842;2024-03-08T02:11:10;7.60;1.00
9885;DHT22;4981;50.966;4.842;2024-03-08T02:13:40;8.30;1.00
9885;DHT22;4981;50.966;4.842;2024-03-08T02:16:08;8.20;1.00
9885;DHT22;4981;50.966;4.842;2024-03-08T02:18:35;8.30;1.00
9885;DHT22;4981;50.966;4.842;2024-03-08T02:21:06;9.10;1.00
9885;DHT22;4981;50.966;4.842;2024-03-08T02:23:34;8.50;1.00
9885;DHT22;4981;50.966;4.842;2024-03-08T02:26:03;8.00;1.00
9885;DHT22;4981;50.966;4.842;2024-03-08T02:28:30;7.30;1.00
9885;DHT22;4981;50.966;4.842;2024-03-08T02:30:57;7.20;1.00
9885;DHT22;4981;50.966;4.842;2024-03-08T02:33:26;7.00;1.00
9885;DHT22;4981;50.966;4.842;2024-03-08T02:35:53;8.30;1.00
9885;DHT22;4981;50.966;4.842;2024-03-08T02:38:22;9.40;1.00
9885;DHT22;4981;50.966;4.842;2024-03-08T02:40:50;9.90;1.00
9885;DHT22;4981;50.966;4.842;2024-03-08T02:43:19;8.50;1.00
9885;DHT22;4981;50.966;4.842;2024-03-08T02:45:47;9.00;1.00
9885;DHT22;4981;50.966;4.842;2024-03-08T02:48:15;7.50;1.00
9885;DHT22;4981;50.966;4.842;2024-03-08T02:50:44;7.40;1.00
9885;DHT22;4981;50.966;4.842;2024-03-08T02:53:12;8.30;1.00
9885;DHT22;4981;50.966;4.842;2024-03-08T02:55:41;8.50;1.00
9885;DHT22;4981;50.966;4.842;2024-03-08T02:58:09;7.80;1.00
9885;DHT22;4981;50.966;4.842;2024-03-08T03:00:37;8.50;1.00
9885;DHT22;4981;50.966;4.842;2024-03-08T03:03:06;8.30;1.00
9885;DHT22;4981;50.966;4.842;2024-03-08T03:05:33;9.10;1.00
9885;DHT22;4981;50.966;4.842;2024-03-08T03:08:00;11.20;1.00
9885;DHT22;4981;50.966;4.842;2024-03-08T03:10:29;9.60;1.00
9885;DHT22;4981;50.966;4.842;2024-03-08T03:12:58;9.20;1.00
9885;DHT22;4981;50.966;4.842;2024-03-08T03:15:25;7.80;1.00
9885;DHT22;4981;50.966;4.842;2024-03-08T03:17:52;7.70;1.00
9885;DHT22;4981;50.966;4.842;2024-03-08T03:20:19;9.10;1.00
9885;DHT22;4981;50.966;4.842;2024-03-08T03:22:52;7.40;1.00
9885;DHT22;4981;50.966;4.842;2024-03-08T03:25:19;7.30;1.00
9885;DHT22;4981;50.966;4.842;2024-03-08T03:27:51;7.90;1.00
9885;DHT22;4981;50.966;4.842;2024-03-08T03:30:23;5.50;1.00
9885;DHT22;4981;50.966;4.842;2024-03-08T03:32:52;7.90;1.00
9885;DHT22;4981;50.966;4.842;2024-03-08T03:35:20;8.30;1.00
9885;DHT22;4981;50.966;4.842;2024-03-08T03:37:48;9.70;1.00
9885;DHT22;4981;50.966;4.842;2024-03-08T03:40:27;8.60;1.00
9885;DHT22;4981;50.966;4.842;2024-03-08T03:42:54;8.30;1.00
9885;DHT22;4981;50.966;4.842;2024-03-08T03:45:23;7.60;1.00
9885;DHT22;4981;50.966;4.842;2024-03-08T03:47:50;8.60;1.00
9885;DHT22;4981;50.966;4.842;2024-03-08T03:50:18;8.40;1.00
9885;DHT22;4981;50.966;4.842;2024-03-08T03:52:45;8.60;1.00
9885;DHT22;4981;50.966;4.842;2024-03-08T03:55:12;9.20;1.00
9885;DHT22;4981;50.966;4.842;2024-03-08T03:57:40;8.10;1.00
9885;DHT22;4981;50.966;4.842;2024-03-08T04:00:08;5.90;1.00
9885;DHT22;4981;50.966;4.842;2024-03-08T04:02:38;4.60;1.00
9885;DHT22;4981;50.966;4.842;2024-03-08T04:05:06;4.60;1.00
9885;DHT22;4981;50.966;4.842;2024-03-08T04:07:34;5.20;1.00
9885;DHT22;4981;50.966;4.842;2024-03-08T04:10:01;4.70;1.00
9885;DHT22;4981;50.966;4.842;2024-03-08T04:12:29;5.20;1.00
9885;DHT22;4981;50.966;4.842;2024-03-08T04:14:56;6.50;1.00
9885;DHT22;4981;50.966;4.842;2024-03-08T04:17:23;6.30;1.00
9885;DHT22;4981;50.966;4.842;2024-03-08T04:19:52;6.30;1.00
9885;DHT22;4981;50.966;4.842;2024-03-08T04:22:20;6.20;1.00
9885;DHT22;4981;50.966;4.842;2024-03-08T04:24:47;7.20;1.00
9885;DHT22;4981;50.966;4.842;2024-03-08T04:27:14;8.40;1.00
9885;DHT22;4981;50.966;4.842;2024-03-08T04:29:41;7.20;1.00
9885;DHT22;4981;50.966;4.842;2024-03-08T04:32:12;6.50;1.00
9885;DHT22;4981;50.966;4.842;2024-03-08T04:34:39;7.90;1.00
9885;DHT22;4981;50.966;4.842;2024-03-08T04:37:08;7.00;1.00
9885;DHT22;4981;50.966;4.842;2024-03-08T04:39:39;7.90;1.00
9885;DHT22;4981;50.966;4.842;2024-03-08T04:42:07;6.90;1.00
9885;DHT22;4981;50.966;4.842;2024-03-08T04:44:36;7.40;1.00
9885;DHT22;4981;50.966;4.842;2024-03-08T04:47:04;5.60;1.00
9885;DHT22;4981;50.966;4.842;2024-03-08T04:49:32;6.10;1.00
9885;DHT22;4981;50.966;4.842;2024-03-08T04:52:01;6.40;1.00
9885;DHT22;4981;50.966;4.842;2024-03-08T04:54:31;6.90;1.00
9885;DHT22;4981;50.966;4.842;2024-03-08T04:56:58;7.10;1.00
9885;DHT22;4981;50.966;4.842;2024-03-08T04:59:26;8.20;1.00
9885;DHT22;4981;50.966;4.842;2024-03-08T05:01:53;8.40;1.00
9885;DHT22;4981;50.966;4.842;2024-03-08T05:04:21;8.50;1.00
9885;DHT22;4981;50.966;4.842;2024-03-08T05:06:49;9.10;1.00
9885;DHT22;4981;50.966;4.842;2024-03-08T05:09:16;9.20;1.00
9885;DHT22;4981;50.966;4.842;2024-03-08T05:11:46;8.60;1.00
9885;DHT22;4981;50.966;4.842;2024-03-08T05:14:14;8.20;1.00
9885;DHT22;4981;50.966;4.842;2024-03-08T05:16:42;8.40;1.00
9885;DHT22;4981;50.966;4.842;2024-03-08T05:19:14;8.70;1.00
9885;DHT22;4981;50.966;4.842;2024-03-08T05:21:42;8.50;1.00
9885;DHT22;4981;50.966;4.842;2024-03-08T05:24:10;6.40;1.00
9885;DHT22;4981;50.966;4.842;2024-03-08T05:26:37;5.40;1.00
9885;DHT22;4981;50.966;4.842;2024-03-08T05:29:06;5.00;1.00
9885;DHT22;4981;50.966;4.842;2024-03-08T05:31:42;6.00;1.00
9885;DHT22;4981;50.966;4.842;2024-03-08T05:34:11;5.50;1.00
9885;DHT22;4981;50.966;4.842;2024-03-08T05:36:40;5.20;1.00
9885;DHT22;4981;50.966;4.842;2024-03-08T05:39:10;4.20;1.00
9885;DHT22;4981;50.966;4.842;2024-03-08T05:41:37;5.20;1.00
9885;DHT22;4981;50.966;4.842;2024-03-08T05:44:06;5.40;1.00
9885;DHT22;4981;50.966;4.842;2024-03-08T05:46:33;7.30;1.00
9885;DHT22;4981;50.966;4.842;2024-03-08T05:49:03;6.80;1.00
9885;DHT22;4981;50.966;4.842;2024-03-08T05:51:31;5.80;1.00
9885;DHT22;4981;50.966;4.842;2024-03-08T05:54:00;6.40;1.00
9885;DHT22;4981;50.966;4.842;2024-03-08T05:56:28;4.80;1.00
9885;DHT22;4981;50.966;4.842;2024-03-08T05:58:56;6.90;1.00
9885;DHT22;4981;50.966;4.842;2024-03-08T06:01:25;5.80;1.00
9885;DHT22;4981;50.966;4.842;2024-03-08T06:03:52;6.10;1.00
9885;DHT22;4981;50.966;4.842;2024-03-08T06:06:21;7.10;1.00
9885;DHT22;4981;50.966;4.842;2024-03-08T06:08:48;7.20;1.00
9885;DHT22;4981;50.966;4.842;2024-03-08T06:11:15;6.30;1.00
9885;DHT22;4981;50.966;4.842;2024-03-08T06:13:43;5.70;1.00
9885;DHT22;4981;50.966;4.842;2024-03-08T06:16:11;5.30;1.00
9885;DHT22;4981;50.966;4.842;2024-03-08T06:18:39;5.80;1.00
9885;DHT22;4981;50.966;4.842;2024-03-08T06:21:07;5.80;1.00
9885;DHT22;4981;50.966;4.842;2024-03-08T06:23:37;5.20;1.00
9885;DHT22;4981;50.966;4.842;2024-03-08T06:26:06;6.10;1.00
9885;DHT22;4981;50.966;4.842;2024-03-08T06:28:33;5.20;1.00
9885;DHT22;4981;50.966;4.842;2024-03-08T06:31:00;4.70;1.00
9885;DHT22;4981;50.966;4.842;2024-03-08T06:33:28;5.70;1.00
9885;DHT22;4981;50.966;4.842;2024-03-08T06:36:00;7.50;1.00
9885;DHT22;4981;50.966;4.842;2024-03-08T06:38:27;6.50;1.00
9885;DHT22;4981;50.966;4.842;2024-03-08T06:40:56;5.50;1.00
9885;DHT22;4981;50.966;4.842;2024-03-08T06:43:24;7.90;1.00
9885;DHT22;4981;50.966;4.842;2024-03-08T06:45:58;7.90;1.00
9885;DHT22;4981;50.966;4.842;2024-03-08T06:48:27;7.10;1.00
9885;DHT22;4981;50.966;4.842;2024-03-08T06:50:55;8.50;1.00
9885;DHT22;4981;50.966;4.842;2024-03-08T06:53:24;7.20;1.00
9885;DHT22;4981;50.966;4.842;2024-03-08T06:55:52;5.00;1.00
9885;DHT22;4981;50.966;4.842;2024-03-08T06:58:20;8.10;1.00
9885;DHT22;4981;50.966;4.842;2024-03-08T07:00:47;6.10;1.00
9885;DHT22;4981;50.966;4.842;2024-03-08T07:03:17;3.50;1.00
9885;DHT22;4981;50.966;4.842;2024-03-08T07:05:45;3.10;1.00
9885;DHT22;4981;50.966;4.842;2024-03-08T07:08:12;3.10;1.00
9885;DHT22;4981;50.966;4.842;2024-03-08T07:10:41;3.10;1.00
9885;DHT22;4981;50.966;4.842;2024-03-08T07:13:11;3.00;1.00
9885;DHT22;4981;50.966;4.842;2024-03-08T07:15:38;3.10;1.00
9885;DHT22;4981;50.966;4.842;2024-03-08T07:18:05;2.90;1.00
9885;DHT22;4981;50.966;4.842;2024-03-08T07:20:34;3.10;1.00
9885;DHT22;4981;50.966;4.842;2024-03-08T07:23:03;3.20;1.00
9885;DHT22;4981;50.966;4.842;2024-03-08T07:25:30;3.80;1.00
9885;DHT22;4981;50.966;4.842;2024-03-08T07:27:59;3.40;1.00
9885;DHT22;4981;50.966;4.842;2024-03-08T07:30:27;3.30;1.00
9885;DHT22;4981;50.966;4.842;2024-03-08T07:33:11;3.40;1.00
9885;DHT22;4981;50.966;4.842;2024-03-08T07:35:39;3.50;1.00
9885;DHT22;4981;50.966;4.842;2024-03-08T07:38:06;6.20;1.00
9885;DHT22;4981;50.966;4.842;2024-03-08T07:40:35;4.30;1.00
9885;DHT22;4981;50.966;4.842;2024-03-08T07:43:05;4.50;1.00
9885;DHT22;4981;50.966;4.842;2024-03-08T07:45:32;5.10;1.00
9885;DHT22;4981;50.966;4.842;2024-03-08T07:48:02;4.80;1.00
9885;DHT22;4981;50.966;4.842;2024-03-08T07:50:29;4.30;1.00
9885;DHT22;4981;50.966;4.842;2024-03-08T07:52:58;4.30;1.00
9885;DHT22;4981;50.966;4.842;2024-03-08T07:55:25;4.70;1.00
9885;DHT22;4981;50.966;4.842;2024-03-08T07:57:53;4.20;1.00
9885;DHT22;4981;50.966;4.842;2024-03-08T08:00:22;5.40;1.00
9885;DHT22;4981;50.966;4.842;2024-03-08T08:02:50;6.10;1.00
9885;DHT22;4981;50.966;4.842;2024-03-08T08:05:17;6.30;1.00
9885;DHT22;4981;50.966;4.842;2024-03-08T08:07:45;5.40;1.00
9885;DHT22;4981;50.966;4.842;2024-03-08T08:10:12;5.30;1.00
9885;DHT22;4981;50.966;4.842;2024-03-08T08:12:44;5.30;1.00
9885;DHT22;4981;50.966;4.842;2024-03-08T08:15:12;6.40;1.00
9885;DHT22;4981;50.966;4.842;2024-03-08T08:17:43;5.70;1.00
9885;DHT22;4981;50.966;4.842;2024-03-08T08:20:11;5.90;1.00
9885;DHT22;4981;50.966;4.842;2024-03-08T08:22:38;5.10;1.00
9885;DHT22;4981;50.966;4.842;2024-03-08T08:25:06;5.60;1.00
9885;DHT22;4981;50.966;4.842;2024-03-08T08:27:33;5.10;1.00
9885;DHT22;4981;50.966;4.842;2024-03-08T08:30:02;5.60;1.00
9885;DHT22;4981;50.966;4.842;2024-03-08T08:32:33;6.10;1.00
9885;DHT22;4981;50.966;4.842;2024-03-08T08:35:03;5.40;1.00
9885;DHT22;4981;50.966;4.842;2024-03-08T08:37:31;6.20;1.00
9885;DHT22;4981;50.966;4.842;2024-03-08T08:39:59;6.00;1.00
9885;DHT22;4981;50.966;4.842;2024-03-08T08:42:31;6.30;1.00
9885;DHT22;4981;50.966;4.842;2024-03-08T08:44:58;8.10;1.00
9885;DHT22;4981;50.966;4.842;2024-03-08T08:47:25;7.10;1.00
9885;DHT22;4981;50.966;4.842;2024-03-08T08:49:54;7.30;1.00
9885;DHT22;4981;50.966;4.842;2024-03-08T08:52:22;6.30;1.00
9885;DHT22;4981;50.966;4.842;2024-03-08T08:54:50;6.50;1.00
9885;DHT22;4981;50.966;4.842;2024-03-08T08:57:17;6.90;1.00
9885;DHT22;4981;50.966;4.842;2024-03-08T08:59:44;8.10;1.00
9885;DHT22;4981;50.966;4.842;2024-03-08T09:02:12;8.20;1.00
9885;DHT22;4981;50.966;4.842;2024-03-08T09:04:42;8.10;1.00
9885;DHT22;4981;50.966;4.842;2024-03-08T09:07:10;8.50;1.00
9885;DHT22;4981;50.966;4.842;2024-03-08T09:09:42;7.30;1.00
9885;DHT22;4981;50.966;4.842;2024-03-08T09:12:09;5.90;1.00
9885;DHT22;4981;50.966;4.842;2024-03-08T09:14:39;6.50;1.00
9885;DHT22;4981;50.966;4.842;2024-03-08T09:17:06;7.60;1.00
9885;DHT22;4981;50.966;4.842;2024-03-08T09:19:34;7.80;1.00
9885;DHT22;4981;50.966;4.842;2024-03-08T09:22:02;7.60;1.00
9885;DHT22;4981;50.966;4.842;2024-03-08T09:24:30;7.30;1.00
9885;DHT22;4981;50.966;4.842;2024-03-08T09:26:59;6.90;1.00
9885;DHT22;4981;50.966;4.842;2024-03-08T09:29:26;7.00;1.00
9885;DHT22;4981;50.966;4.842;2024-03-08T09:31:53;6.60;1.00
9885;DHT22;4981;50.966;4.842;2024-03-08T09:34:21;7.10;1.00
9885;DHT22;4981;50.966;4.842;2024-03-08T09:36:49;7.90;1.00
9885;DHT22;4981;50.966;4.842;2024-03-08T09:39:16;7.00;1.00
9885;DHT22;4981;50.966;4.842;2024-03-08T09:41:45;7.30;1.00
9885;DHT22;4981;50.966;4.842;2024-03-08T09:44:15;8.70;1.00
9885;DHT22;4981;50.966;4.842;2024-03-08T09:46:42;7.60;1.00
9885;DHT22;4981;50.966;4.842;2024-03-08T09:49:10;8.80;1.00
9885;DHT22;4981;50.966;4.842;2024-03-08T09:51:38;8.40;1.00
9885;DHT22;4981;50.966;4.842;2024-03-08T09:54:07;7.80;1.00
9885;DHT22;4981;50.966;4.842;2024-03-08T09:56:35;7.80;1.00
9885;DHT22;4981;50.966;4.842;2024-03-08T09:59:03;7.40;1.00
9885;DHT22;4981;50.966;4.842;2024-03-08T10:02:13;7.40;1.00
9885;DHT22;4981;50.966;4.842;2024-03-08T10:04:42;7.60;1.00
9885;DHT22;4981;50.966;4.842;2024-03-08T10:07:09;8.40;1.00
9885;DHT22;4981;50.966;4.842;2024-03-08T10:09:38;8.30;1.00
9885;DHT22;4981;50.966;4.842;2024-03-08T10:12:06;8.00;1.00
9885;DHT22;4981;50.966;4.842;2024-03-08T10:14:39;9.00;1.00
9885;DHT22;4981;50.966;4.842;2024-03-08T10:17:09;8.80;1.00
9885;DHT22;4981;50.966;4.842;2024-03-08T10:19:36;8.30;1.00
9885;DHT22;4981;50.966;4.842;2024-03-08T10:22:04;8.50;1.00
9885;DHT22;4981;50.966;4.842;2024-03-08T10:24:33;9.70;1.00
9885;DHT22;4981;50.966;4.842;2024-03-08T10:27:01;9.70;1.00
9885;DHT22;4981;50.966;4.842;2024-03-08T10:29:31;8.60;1.00
9885;DHT22;4981;50.966;4.842;2024-03-08T10:31:58;8.30;1.00
9885;DHT22;4981;50.966;4.842;2024-03-08T10:34:27;9.80;1.00
9885;DHT22;4981;50.966;4.842;2024-03-08T10:37:01;9.20;1.00
9885;DHT22;4981;50.966;4.842;2024-03-08T10:39:35;9.10;1.00
9885;DHT22;4981;50.966;4.842;2024-03-08T10:42:04;9.90;1.00
9885;DHT22;4981;50.966;4.842;2024-03-08T10:44:48;9.20;1.00
9885;DHT22;4981;50.966;4.842;2024-03-08T10:47:25;9.30;1.00
9885;DHT22;4981;50.966;4.842;2024-03-08T10:50:04;8.90;1.00
9885;DHT22;4981;50.966;4.842;2024-03-08T10:52:33;10.70;1.00
9885;DHT22;4981;50.966;4.842;2024-03-08T10:55:02;8.70;1.00
9885;DHT22;4981;50.966;4.842;2024-03-08T10:57:30;9.20;1.00
9885;DHT22;4981;50.966;4.842;2024-03-08T10:59:58;8.90;1.00
9885;DHT22;4981;50.966;4.842;2024-03-08T11:02:27;9.40;1.00
9885;DHT22;4981;50.966;4.842;2024-03-08T11:04:54;9.30;1.00
9885;DHT22;4981;50.966;4.842;2024-03-08T11:07:25;10.20;1.00
9885;DHT22;4981;50.966;4.842;2024-03-08T11:09:53;9.40;1.00
9885;DHT22;4981;50.966;4.842;2024-03-08T11:12:24;9.20;1.00
9885;DHT22;4981;50.966;4.842;2024-03-08T11:14:56;10.10;1.00
9885;DHT22;4981;50.966;4.842;2024-03-08T11:17:40;9.60;1.00
9885;DHT22;4981;50.966;4.842;2024-03-08T11:20:11;10.10;1.00
9885;DHT22;4981;50.966;4.842;2024-03-08T11:22:48;10.70;1.00
9885;DHT22;4981;50.966;4.842;2024-03-08T11:25:34;10.00;1.00
9885;DHT22;4981;50.966;4.842;2024-03-08T11:28:13;9.80;1.00
9885;DHT22;4981;50.966;4.842;2024-03-08T11:30:44;9.70;1.00
9885;DHT22;4981;50.966;4.842;2024-03-08T11:33:14;10.30;1.00
9885;DHT22;4981;50.966;4.842;2024-03-08T11:35:42;10.50;1.00
9885;DHT22;4981;50.966;4.842;2024-03-08T11:38:13;12.20;1.00
9885;DHT22;4981;50.966;4.842;2024-03-08T11:40:42;13.20;1.00
9885;DHT22;4981;50.966;4.842;2024-03-08T11:43:09;14.00;1.00
9885;DHT22;4981;50.966;4.842;2024-03-08T11:45:36;14.00;1.00
9885;DHT22;4981;50.966;4.842;2024-03-08T11:48:04;14.10;1.00
9885;DHT22;4981;50.966;4.842;2024-03-08T11:50:58;14.10;1.00
9885;DHT22;4981;50.966;4.842;2024-03-08T11:53:27;14.40;1.00
9885;DHT22;4981;50.966;4.842;2024-03-08T11:55:54;14.10;1.00
9885;DHT22;4981;50.966;4.842;2024-03-08T11:58:21;14.20;1.00
9885;DHT22;4981;50.966;4.842;2024-03-08T12:00:49;14.30;1.00
9885;DHT22;4981;50.966;4.842;2024-03-08T12:03:16;14.40;1.00
9885;DHT22;4981;50.966;4.842;2024-03-08T12:05:43;14.40;1.00
9885;DHT22;4981;50.966;4.842;2024-03-08T12:08:12;14.90;1.00
9885;DHT22;4981;50.966;4.842;2024-03-08T12:10:41;14.80;1.00
9885;DHT22;4981;50.966;4.842;2024-03-08T12:13:09;15.00;1.00
9885;DHT22;4981;50.966;4.842;2024-03-08T12:15:39;15.50;1.00
9885;DHT22;4981;50.966;4.842;2024-03-08T12:18:07;15.50;1.00
9885;DHT22;4981;50.966;4.842;2024-03-08T12:20:36;15.40;1.00
9885;DHT22;4981;50.966;4.842;2024-03-08T12:23:05;15.60;1.00
9885;DHT22;4981;50.966;4.842;2024-03-08T12:25:32;15.40;1.00
9885;DHT22;4981;50.966;4.842;2024-03-08T12:28:09;15.90;1.00
9885;DHT22;4981;50.966;4.842;2024-03-08T12:30:46;16.40;1.00
9885;DHT22;4981;50.966;4.842;2024-03-08T12:33:14;16.00;1.00
9885;DHT22;4981;50.966;4.842;2024-03-08T12:35:41;15.90;1.00
9885;DHT22;4981;50.966;4.842;2024-03-08T12:38:10;16.20;1.00
9885;DHT22;4981;50.966;4.842;2024-03-08T12:40:37;16.30;1.00
9885;DHT22;4981;50.966;4.842;2024-03-08T12:43:09;16.90;1.00
9885;DHT22;4981;50.966;4.842;2024-03-08T12:45:36;16.80;1.00
9885;DHT22;4981;50.966;4.842;2024-03-08T12:48:03;16.90;1.00
9885;DHT22;4981;50.966;4.842;2024-03-08T12:50:41;16.70;1.00
9885;DHT22;4981;50.966;4.842;2024-03-08T12:53:12;16.50;1.00
9885;DHT22;4981;50.966;4.842;2024-03-08T12:55:39;16.90;1.00
9885;DHT22;4981;50.966;4.842;2024-03-08T12:58:06;17.00;1.00
9885;DHT22;4981;50.966;4.842;2024-03-08T13:00:35;17.20;1.00
9885;DHT22;4981;50.966;4.842;2024-03-08T13:03:02;17.00;1.00
9885;DHT22;4981;50.966;4.842;2024-03-08T13:05:29;17.20;1.00
9885;DHT22;4981;50.966;4.842;2024-03-08T13:07:56;17.30;1.00
9885;DHT22;4981;50.966;4.842;2024-03-08T13:10:24;18.40;1.00
9885;DHT22;4981;50.966;4.842;2024-03-08T13:12:51;17.60;1.00
9885;DHT22;4981;50.966;4.842;2024-03-08T13:15:18;17.60;1.00
9885;DHT22;4981;50.966;4.842;2024-03-08T13:17:48;17.70;1.00
9885;DHT22;4981;50.966;4.842;2024-03-08T13:20:15;17.30;1.00
9885;DHT22;4981;50.966;4.842;2024-03-08T13:22:45;17.50;1.00
9885;DHT22;4981;50.966;4.842;2024-03-08T13:25:12;17.00;1.00
9885;DHT22;4981;50.966;4.842;2024-03-08T13:27:40;17.80;1.00
9885;DHT22;4981;50.966;4.842;2024-03-08T13:30:09;18.20;1.00
9885;DHT22;4981;50.966;4.842;2024-03-08T13:32:39;17.90;1.00
9885;DHT22;4981;50.966;4.842;2024-03-08T13:35:10;18.00;1.00
9885;DHT22;4981;50.966;4.842;2024-03-08T13:37:39;17.70;1.00
9885;DHT22;4981;50.966;4.842;2024-03-08T13:40:07;17.60;1.00
9885;DHT22;4981;50.966;4.842;2024-03-08T13:42:36;17.70;1.00
9885;DHT22;4981;50.966;4.842;2024-03-08T13:45:05;17.60;1.00
9885;DHT22;4981;50.966;4.842;2024-03-08T13:47:34;18.20;1.00
9885;DHT22;4981;50.966;4.842;2024-03-08T13:50:01;17.90;1.00
9885;DHT22;4981;50.966;4.842;2024-03-08T13:52:31;17.80;1.00
9885;DHT22;4981;50.966;4.842;2024-03-08T13:54:59;17.60;1.00
9885;DHT22;4981;50.966;4.842;2024-03-08T13:57:27;17.60;1.00
9885;DHT22;4981;50.966;4.842;2024-03-08T13:59:54;17.40;1.00
9885;DHT22;4981;50.966;4.842;2024-03-08T14:02:21;17.60;1.00
9885;DHT22;4981;50.966;4.842;2024-03-08T14:04:50;17.20;1.00
9885;DHT22;4981;50.966;4.842;2024-03-08T14:07:17;17.70;1.00
9885;DHT22;4981;50.966;4.842;2024-03-08T14:09:46;17.60;1.00
9885;DHT22;4981;50.966;4.842;2024-03-08T14:12:13;17.60;1.00
9885;DHT22;4981;50.966;4.842;2024-03-08T14:14:41;17.90;1.00
9885;DHT22;4981;50.966;4.842;2024-03-08T14:17:10;17.80;1.00
9885;DHT22;4981;50.966;4.842;2024-03-08T14:19:42;17.90;1.00
9885;DHT22;4981;50.966;4.842;2024-03-08T14:22:09;17.80;1.00
9885;DHT22;4981;50.966;4.842;2024-03-08T14:24:40;17.80;1.00
9885;DHT22;4981;50.966;4.842;2024-03-08T14:27:09;17.50;1.00
9885;DHT22;4981;50.966;4.842;2024-03-08T14:29:37;16.90;1.00
9885;DHT22;4981;50.966;4.842;2024-03-08T14:32:05;17.00;1.00
9885;DHT22;4981;50.966;4.842;2024-03-08T14:34:32;17.20;1.00
9885;DHT22;4981;50.966;4.842;2024-03-08T14:37:00;17.20;1.00
9885;DHT22;4981;50.966;4.842;2024-03-08T14:39:30;17.40;1.00
9885;DHT22;4981;50.966;4.842;2024-03-08T14:41:59;17.50;1.00
9885;DHT22;4981;50.966;4.842;2024-03-08T14:44:29;17.10;1.00
9885;DHT22;4981;50.966;4.842;2024-03-08T14:46:56;17.10;1.00
9885;DHT22;4981;50.966;4.842;2024-03-08T14:49:23;17.40;1.00
9885;DHT22;4981;50.966;4.842;2024-03-08T14:51:52;17.60;1.00
9885;DHT22;4981;50.966;4.842;2024-03-08T14:54:19;17.60;1.00
9885;DHT22;4981;50.966;4.842;2024-03-08T14:56:49;17.30;1.00
9885;DHT22;4981;50.966;4.842;2024-03-08T14:59:17;17.00;1.00
9885;DHT22;4981;50.966;4.842;2024-03-08T15:01:46;17.40;1.00
9885;DHT22;4981;50.966;4.842;2024-03-08T15:04:13;17.20;1.00
9885;DHT22;4981;50.966;4.842;2024-03-08T15:06:41;17.00;1.00
9885;DHT22;4981;50.966;4.842;2024-03-08T15:09:13;17.00;1.00
9885;DHT22;4981;50.966;4.842;2024-03-08T15:11:45;17.10;1.00
9885;DHT22;4981;50.966;4.842;2024-03-08T15:14:14;17.00;1.00
9885;DHT22;4981;50.966;4.842;2024-03-08T15:16:46;17.30;1.00
9885;DHT22;4981;50.966;4.842;2024-03-08T15:19:15;17.00;1.00
9885;DHT22;4981;50.966;4.842;2024-03-08T15:21:43;17.00;1.00
9885;DHT22;4981;50.966;4.842;2024-03-08T15:24:11;16.70;1.00
9885;DHT22;4981;50.966;4.842;2024-03-08T15:26:41;17.00;1.00
9885;DHT22;4981;50.966;4.842;2024-03-08T15:29:09;16.80;1.00
9885;DHT22;4981;50.966;4.842;2024-03-08T15:31:38;17.10;1.00
9885;DHT22;4981;50.966;4.842;2024-03-08T15:34:08;16.90;1.00
9885;DHT22;4981;50.966;4.842;2024-03-08T15:36:36;17.00;1.00
9885;DHT22;4981;50.966;4.842;2024-03-08T15:39:08;16.90;1.00
9885;DHT22;4981;50.966;4.842;2024-03-08T15:41:37;17.00;1.00
9885;DHT22;4981;50.966;4.842;2024-03-08T15:44:04;16.70;1.00
9885;DHT22;4981;50.966;4.842;2024-03-08T15:46:31;16.70;1.00
9885;DHT22;4981;50.966;4.842;2024-03-08T15:48:58;16.70;1.00
9885;DHT22;4981;50.966;4.842;2024-03-08T15:51:27;16.80;1.00
9885;DHT22;4981;50.966;4.842;2024-03-08T15:53:56;16.70;1.00
9885;DHT22;4981;50.966;4.842;2024-03-08T15:56:23;16.60;1.00
9885;DHT22;4981;50.966;4.842;2024-03-08T15:58:51;16.60;1.00
9885;DHT22;4981;50.966;4.842;2024-03-08T16:01:18;16.80;1.00
9885;DHT22;4981;50.966;4.842;2024-03-08T16:03:46;16.60;1.00
9885;DHT22;4981;50.966;4.842;2024-03-08T16:06:15;16.30;1.00
9885;DHT22;4981;50.966;4.842;2024-03-08T16:08:48;16.50;1.00
9885;DHT22;4981;50.966;4.842;2024-03-08T16:11:16;16.00;1.00
9885;DHT22;4981;50.966;4.842;2024-03-08T16:13:44;15.40;1.00
9885;DHT22;4981;50.966;4.842;2024-03-08T16:16:11;15.20;1.00
9885;DHT22;4981;50.966;4.842;2024-03-08T16:18:38;15.10;1.00
9885;DHT22;4981;50.966;4.842;2024-03-08T16:21:05;15.00;1.00
9885;DHT22;4981;50.966;4.842;2024-03-08T16:23:33;14.70;1.00
9885;DHT22;4981;50.966;4.842;2024-03-08T16:26:03;14.90;1.00
9885;DHT22;4981;50.966;4.842;2024-03-08T16:28:31;14.50;1.00
9885;DHT22;4981;50.966;4.842;2024-03-08T16:31:04;14.10;1.00
9885;DHT22;4981;50.966;4.842;2024-03-08T16:33:33;14.30;1.00
9885;DHT22;4981;50.966;4.842;2024-03-08T16:36:01;14.20;1.00
9885;DHT22;4981;50.966;4.842;2024-03-08T16:38:29;14.20;1.00